sensor_id;sensor_type;location;lat;lon;timestamp;P1;durP1;ratioP1;P2;durP2;ratioP2
5117;SDS011;2578;51.622;7.046;2022-08-05T00:02:04;7.77;;;2.20;;
5117;SDS011;2578;51.622;7.046;2022-08-05T00:04:29;7.73;;;2.17;;
5117;SDS011;2578;51.622;7.046;2022-08-05T00:06:55;7.83;;;2.10;;
5117;SDS011;2578;51.622;7.046;2022-08-05T00:09:20;7.90;;;2.30;;
5117;SDS011;2578;51.622;7.046;2022-08-05T00:11:46;7.87;;;2.40;;
5117;SDS011;2578;51.622;7.046;2022-08-05T00:14:12;7.83;;;2.00;;
5117;SDS011;2578;51.622;7.046;2022-08-05T00:16:38;7.73;;;2.00;;
5117;SDS011;2578;51.622;7.046;2022-08-05T00:19:04;7.73;;;2.10;;
5117;SDS011;2578;51.622;7.046;2022-08-05T00:21:29;7.70;;;1.93;;
5117;SDS011;2578;51.622;7.046;2022-08-05T00:23:55;7.67;;;1.90;;
5117;SDS011;2578;51.622;7.046;2022-08-05T00:26:20;7.93;;;2.30;;
5117;SDS011;2578;51.622;7.046;2022-08-05T00:28:46;7.73;;;2.20;;
5117;SDS011;2578;51.622;7.046;2022-08-05T00:31:12;7.77;;;2.10;;
5117;SDS011;2578;51.622;7.046;2022-08-05T00:33:38;7.83;;;2.10;;
5117;SDS011;2578;51.622;7.046;2022-08-05T00:36:04;7.93;;;2.23;;
5117;SDS011;2578;51.622;7.046;2022-08-05T00:38:29;7.90;;;2.38;;
5117;SDS011;2578;51.622;7.046;2022-08-05T00:40:56;7.93;;;2.70;;
5117;SDS011;2578;51.622;7.046;2022-08-05T00:43:23;7.90;;;2.50;;
5117;SDS011;2578;51.622;7.046;2022-08-05T00:45:49;7.83;;;2.30;;
5117;SDS011;2578;51.622;7.046;2022-08-05T00:48:15;7.80;;;2.30;;
5117;SDS011;2578;51.622;7.046;2022-08-05T00:50:43;7.60;;;2.23;;
5117;SDS011;2578;51.622;7.046;2022-08-05T00:53:10;7.37;;;2.10;;
5117;SDS011;2578;51.622;7.046;2022-08-05T00:55:37;7.50;;;2.10;;
5117;SDS011;2578;51.622;7.046;2022-08-05T00:58:02;8.10;;;2.40;;
5117;SDS011;2578;51.622;7.046;2022-08-05T01:00:28;11.00;;;4.93;;
5117;SDS011;2578;51.622;7.046;2022-08-05T01:02:55;8.17;;;2.30;;
5117;SDS011;2578;51.622;7.046;2022-08-05T01:05:22;8.27;;;2.30;;
5117;SDS011;2578;51.622;7.046;2022-08-05T01:07:47;8.63;;;2.90;;
5117;SDS011;2578;51.622;7.046;2022-08-05T01:10:15;8.63;;;3.10;;
5117;SDS011;2578;51.622;7.046;2022-08-05T01:12:44;9.20;;;3.23;;
5117;SDS011;2578;51.622;7.046;2022-08-05T01:15:16;8.53;;;2.70;;
5117;SDS011;2578;51.622;7.046;2022-08-05T01:17:49;8.60;;;2.80;;
5117;SDS011;2578;51.622;7.046;2022-08-05T01:20:30;8.50;;;3.20;;
5117;SDS011;2578;51.622;7.046;2022-08-05T01:31:36;8.87;;;3.80;;
5117;SDS011;2578;51.622;7.046;2022-08-05T01:34:09;8.88;;;3.90;;
5117;SDS011;2578;51.622;7.046;2022-08-05T01:36:41;10.60;;;4.73;;
5117;SDS011;2578;51.622;7.046;2022-08-05T01:39:10;8.90;;;3.90;;
5117;SDS011;2578;51.622;7.046;2022-08-05T01:41:39;8.80;;;3.50;;
5117;SDS011;2578;51.622;7.046;2022-08-05T01:44:07;9.10;;;4.15;;
5117;SDS011;2578;51.622;7.046;2022-08-05T01:46:34;8.77;;;3.40;;
5117;SDS011;2578;51.622;7.046;2022-08-05T01:49:02;9.50;;;4.50;;
5117;SDS011;2578;51.622;7.046;2022-08-05T01:51:30;9.50;;;4.07;;
5117;SDS011;2578;51.622;7.046;2022-08-05T01:53:57;8.87;;;3.90;;
5117;SDS011;2578;51.622;7.046;2022-08-05T01:56:26;8.97;;;3.80;;
5117;SDS011;2578;51.622;7.046;2022-08-05T01:58:54;8.87;;;3.90;;
5117;SDS011;2578;51.622;7.046;2022-08-05T02:01:21;8.98;;;4.00;;
5117;SDS011;2578;51.622;7.046;2022-08-05T02:03:48;8.77;;;3.30;;
5117;SDS011;2578;51.622;7.046;2022-08-05T02:06:17;9.17;;;4.13;;
5117;SDS011;2578;51.622;7.046;2022-08-05T02:08:43;8.77;;;3.30;;
5117;SDS011;2578;51.622;7.046;2022-08-05T02:11:10;8.77;;;3.30;;
5117;SDS011;2578;51.622;7.046;2022-08-05T02:13:45;8.77;;;3.30;;
5117;SDS011;2578;51.622;7.046;2022-08-05T02:16:24;9.27;;;4.00;;
5117;SDS011;2578;51.622;7.046;2022-08-05T02:19:19;9.00;;;3.60;;
5117;SDS011;2578;51.622;7.046;2022-08-05T02:21:58;9.90;;;4.93;;
5117;SDS011;2578;51.622;7.046;2022-08-05T02:24:40;8.87;;;3.50;;
5117;SDS011;2578;51.622;7.046;2022-08-05T02:27:10;8.93;;;3.50;;
5117;SDS011;2578;51.622;7.046;2022-08-05T02:29:37;8.73;;;3.20;;
5117;SDS011;2578;51.622;7.046;2022-08-05T02:32:07;8.77;;;3.30;;
5117;SDS011;2578;51.622;7.046;2022-08-05T02:34:35;8.83;;;3.30;;
5117;SDS011;2578;51.622;7.046;2022-08-05T02:37:03;8.77;;;3.20;;
5117;SDS011;2578;51.622;7.046;2022-08-05T02:39:34;8.87;;;3.67;;
5117;SDS011;2578;51.622;7.046;2022-08-05T02:42:02;8.57;;;3.00;;
5117;SDS011;2578;51.622;7.046;2022-08-05T02:44:31;8.97;;;3.63;;
5117;SDS011;2578;51.622;7.046;2022-08-05T02:47:00;8.60;;;3.10;;
5117;SDS011;2578;51.622;7.046;2022-08-05T02:49:28;9.13;;;3.63;;
5117;SDS011;2578;51.622;7.046;2022-08-05T02:51:58;11.30;;;5.67;;
5117;SDS011;2578;51.622;7.046;2022-08-05T02:54:24;9.17;;;4.50;;
5117;SDS011;2578;51.622;7.046;2022-08-05T02:56:52;9.40;;;4.30;;
5117;SDS011;2578;51.622;7.046;2022-08-05T02:59:18;9.70;;;5.00;;
5117;SDS011;2578;51.622;7.046;2022-08-05T03:01:44;10.10;;;5.40;;
5117;SDS011;2578;51.622;7.046;2022-08-05T03:04:14;9.90;;;4.73;;
5117;SDS011;2578;51.622;7.046;2022-08-05T03:06:42;9.73;;;5.00;;
5117;SDS011;2578;51.622;7.046;2022-08-05T03:09:10;9.55;;;5.10;;
5117;SDS011;2578;51.622;7.046;2022-08-05T03:11:37;9.10;;;4.60;;
5117;SDS011;2578;51.622;7.046;2022-08-05T03:14:06;9.10;;;4.70;;
5117;SDS011;2578;51.622;7.046;2022-08-05T03:16:32;8.87;;;4.50;;
5117;SDS011;2578;51.622;7.046;2022-08-05T03:18:58;8.67;;;3.93;;
5117;SDS011;2578;51.622;7.046;2022-08-05T03:21:25;10.07;;;5.53;;
5117;SDS011;2578;51.622;7.046;2022-08-05T03:23:50;9.15;;;4.78;;
5117;SDS011;2578;51.622;7.046;2022-08-05T03:26:16;8.60;;;4.00;;
5117;SDS011;2578;51.622;7.046;2022-08-05T03:28:42;10.47;;;4.30;;
5117;SDS011;2578;51.622;7.046;2022-08-05T03:31:08;8.90;;;4.60;;
5117;SDS011;2578;51.622;7.046;2022-08-05T03:33:34;8.75;;;4.15;;
5117;SDS011;2578;51.622;7.046;2022-08-05T03:36:00;8.87;;;4.00;;
5117;SDS011;2578;51.622;7.046;2022-08-05T03:38:26;8.93;;;4.22;;
5117;SDS011;2578;51.622;7.046;2022-08-05T03:40:52;8.98;;;4.50;;
5117;SDS011;2578;51.622;7.046;2022-08-05T03:43:18;9.40;;;4.47;;
5117;SDS011;2578;51.622;7.046;2022-08-05T03:45:44;8.90;;;4.10;;
5117;SDS011;2578;51.622;7.046;2022-08-05T03:48:10;8.87;;;4.50;;
5117;SDS011;2578;51.622;7.046;2022-08-05T03:53:12;8.80;;;3.80;;
5117;SDS011;2578;51.622;7.046;2022-08-05T03:55:43;9.23;;;3.97;;
5117;SDS011;2578;51.622;7.046;2022-08-05T03:58:15;8.83;;;4.00;;
5117;SDS011;2578;51.622;7.046;2022-08-05T04:00:43;10.43;;;5.47;;
5117;SDS011;2578;51.622;7.046;2022-08-05T04:03:11;8.90;;;4.00;;
5117;SDS011;2578;51.622;7.046;2022-08-05T04:05:37;18.43;;;6.17;;
5117;SDS011;2578;51.622;7.046;2022-08-05T04:08:09;8.98;;;4.93;;
5117;SDS011;2578;51.622;7.046;2022-08-05T04:10:35;9.87;;;5.13;;
5117;SDS011;2578;51.622;7.046;2022-08-05T04:13:02;9.10;;;5.00;;
5117;SDS011;2578;51.622;7.046;2022-08-05T04:15:28;9.40;;;5.67;;
5117;SDS011;2578;51.622;7.046;2022-08-05T04:17:54;10.70;;;5.57;;
5117;SDS011;2578;51.622;7.046;2022-08-05T04:20:21;10.10;;;6.17;;
5117;SDS011;2578;51.622;7.046;2022-08-05T04:22:47;10.73;;;6.63;;
5117;SDS011;2578;51.622;7.046;2022-08-05T04:25:13;13.57;;;8.73;;
5117;SDS011;2578;51.622;7.046;2022-08-05T04:27:39;10.70;;;7.10;;
5117;SDS011;2578;51.622;7.046;2022-08-05T04:30:06;11.60;;;7.13;;
5117;SDS011;2578;51.622;7.046;2022-08-05T04:32:32;10.33;;;6.43;;
5117;SDS011;2578;51.622;7.046;2022-08-05T04:34:58;10.87;;;7.17;;
5117;SDS011;2578;51.622;7.046;2022-08-05T04:37:24;12.17;;;7.70;;
5117;SDS011;2578;51.622;7.046;2022-08-05T04:39:49;10.60;;;7.07;;
5117;SDS011;2578;51.622;7.046;2022-08-05T04:42:15;11.00;;;7.95;;
5117;SDS011;2578;51.622;7.046;2022-08-05T04:44:41;10.73;;;6.93;;
5117;SDS011;2578;51.622;7.046;2022-08-05T04:47:06;11.00;;;8.00;;
5117;SDS011;2578;51.622;7.046;2022-08-05T04:49:32;10.77;;;7.10;;
5117;SDS011;2578;51.622;7.046;2022-08-05T04:51:58;10.93;;;7.83;;
5117;SDS011;2578;51.622;7.046;2022-08-05T04:54:24;10.87;;;7.27;;
5117;SDS011;2578;51.622;7.046;2022-08-05T04:56:52;11.80;;;8.13;;
5117;SDS011;2578;51.622;7.046;2022-08-05T04:59:19;11.40;;;7.90;;
5117;SDS011;2578;51.622;7.046;2022-08-05T05:01:46;14.60;;;7.20;;
5117;SDS011;2578;51.622;7.046;2022-08-05T05:04:12;10.83;;;7.00;;
5117;SDS011;2578;51.622;7.046;2022-08-05T05:06:38;10.30;;;6.73;;
5117;SDS011;2578;51.622;7.046;2022-08-05T05:09:04;9.60;;;6.40;;
5117;SDS011;2578;51.622;7.046;2022-08-05T05:11:29;9.07;;;5.30;;
5117;SDS011;2578;51.622;7.046;2022-08-05T05:13:55;8.97;;;5.20;;
5117;SDS011;2578;51.622;7.046;2022-08-05T05:16:20;9.05;;;5.60;;
5117;SDS011;2578;51.622;7.046;2022-08-05T05:18:46;9.17;;;5.43;;
5117;SDS011;2578;51.622;7.046;2022-08-05T05:21:11;9.48;;;6.38;;
5117;SDS011;2578;51.622;7.046;2022-08-05T05:23:37;9.80;;;7.43;;
5117;SDS011;2578;51.622;7.046;2022-08-05T05:26:03;11.43;;;7.43;;
5117;SDS011;2578;51.622;7.046;2022-08-05T05:28:31;10.00;;;7.17;;
5117;SDS011;2578;51.622;7.046;2022-08-05T05:30:57;10.63;;;7.40;;
5117;SDS011;2578;51.622;7.046;2022-08-05T05:33:23;11.13;;;8.00;;
5117;SDS011;2578;51.622;7.046;2022-08-05T05:35:49;11.70;;;8.60;;
5117;SDS011;2578;51.622;7.046;2022-08-05T05:38:16;11.17;;;7.87;;
5117;SDS011;2578;51.622;7.046;2022-08-05T05:40:42;11.60;;;8.60;;
5117;SDS011;2578;51.622;7.046;2022-08-05T05:43:11;10.97;;;7.30;;
5117;SDS011;2578;51.622;7.046;2022-08-05T05:45:37;11.60;;;9.13;;
5117;SDS011;2578;51.622;7.046;2022-08-05T05:48:03;15.40;;;8.87;;
5117;SDS011;2578;51.622;7.046;2022-08-05T05:50:31;11.00;;;8.00;;
5117;SDS011;2578;51.622;7.046;2022-08-05T05:52:58;10.87;;;7.60;;
5117;SDS011;2578;51.622;7.046;2022-08-05T05:55:23;11.23;;;8.07;;
5117;SDS011;2578;51.622;7.046;2022-08-05T05:57:49;11.30;;;8.17;;
5117;SDS011;2578;51.622;7.046;2022-08-05T06:00:16;12.23;;;9.15;;
5117;SDS011;2578;51.622;7.046;2022-08-05T06:02:44;14.57;;;9.10;;
5117;SDS011;2578;51.622;7.046;2022-08-05T06:05:11;11.23;;;7.93;;
5117;SDS011;2578;51.622;7.046;2022-08-05T06:10:17;10.67;;;7.80;;
5117;SDS011;2578;51.622;7.046;2022-08-05T06:12:45;13.03;;;9.10;;
5117;SDS011;2578;51.622;7.046;2022-08-05T06:15:11;11.45;;;8.88;;
5117;SDS011;2578;51.622;7.046;2022-08-05T06:17:40;11.60;;;8.60;;
5117;SDS011;2578;51.622;7.046;2022-08-05T06:20:06;13.63;;;9.20;;
5117;SDS011;2578;51.622;7.046;2022-08-05T06:22:32;11.63;;;9.13;;
5117;SDS011;2578;51.622;7.046;2022-08-05T06:24:58;13.00;;;9.53;;
5117;SDS011;2578;51.622;7.046;2022-08-05T06:27:25;15.70;;;9.70;;
5117;SDS011;2578;51.622;7.046;2022-08-05T06:29:51;13.73;;;10.20;;
5117;SDS011;2578;51.622;7.046;2022-08-05T06:32:16;11.47;;;8.00;;
5117;SDS011;2578;51.622;7.046;2022-08-05T06:34:48;15.95;;;9.77;;
5117;SDS011;2578;51.622;7.046;2022-08-05T06:37:13;12.27;;;9.20;;
5117;SDS011;2578;51.622;7.046;2022-08-05T06:39:40;21.00;;;11.10;;
5117;SDS011;2578;51.622;7.046;2022-08-05T06:42:06;12.30;;;9.23;;
5117;SDS011;2578;51.622;7.046;2022-08-05T06:44:32;13.80;;;9.13;;
5117;SDS011;2578;51.622;7.046;2022-08-05T06:46:57;11.20;;;7.90;;
5117;SDS011;2578;51.622;7.046;2022-08-05T06:49:25;11.17;;;7.57;;
5117;SDS011;2578;51.622;7.046;2022-08-05T06:51:54;11.07;;;7.60;;
5117;SDS011;2578;51.622;7.046;2022-08-05T06:54:22;11.47;;;8.70;;
5117;SDS011;2578;51.622;7.046;2022-08-05T06:56:47;11.07;;;7.87;;
5117;SDS011;2578;51.622;7.046;2022-08-05T06:59:13;11.40;;;7.47;;
5117;SDS011;2578;51.622;7.046;2022-08-05T07:01:39;11.47;;;8.50;;
5117;SDS011;2578;51.622;7.046;2022-08-05T07:04:05;13.33;;;8.87;;
5117;SDS011;2578;51.622;7.046;2022-08-05T07:06:30;11.57;;;7.90;;
5117;SDS011;2578;51.622;7.046;2022-08-05T07:08:56;11.73;;;8.13;;
5117;SDS011;2578;51.622;7.046;2022-08-05T07:11:22;14.07;;;8.30;;
5117;SDS011;2578;51.622;7.046;2022-08-05T07:13:48;11.77;;;7.50;;
5117;SDS011;2578;51.622;7.046;2022-08-05T07:16:43;11.70;;;7.25;;
5117;SDS011;2578;51.622;7.046;2022-08-05T07:19:16;11.03;;;6.80;;
5117;SDS011;2578;51.622;7.046;2022-08-05T07:21:42;12.63;;;8.13;;
5117;SDS011;2578;51.622;7.046;2022-08-05T07:24:09;11.80;;;7.50;;
5117;SDS011;2578;51.622;7.046;2022-08-05T07:26:35;11.57;;;7.77;;
5117;SDS011;2578;51.622;7.046;2022-08-05T07:29:01;11.50;;;7.80;;
5117;SDS011;2578;51.622;7.046;2022-08-05T07:31:27;12.50;;;8.60;;
5117;SDS011;2578;51.622;7.046;2022-08-05T07:33:52;11.03;;;7.80;;
5117;SDS011;2578;51.622;7.046;2022-08-05T07:36:18;12.50;;;9.43;;
5117;SDS011;2578;51.622;7.046;2022-08-05T07:38:44;11.90;;;8.10;;
5117;SDS011;2578;51.622;7.046;2022-08-05T07:41:19;12.70;;;8.53;;
5117;SDS011;2578;51.622;7.046;2022-08-05T07:43:47;11.10;;;7.37;;
5117;SDS011;2578;51.622;7.046;2022-08-05T07:46:13;11.60;;;8.00;;
5117;SDS011;2578;51.622;7.046;2022-08-05T07:48:39;12.80;;;9.20;;
5117;SDS011;2578;51.622;7.046;2022-08-05T07:51:05;12.43;;;8.40;;
5117;SDS011;2578;51.622;7.046;2022-08-05T07:53:30;11.77;;;7.30;;
5117;SDS011;2578;51.622;7.046;2022-08-05T07:55:56;10.97;;;6.80;;
5117;SDS011;2578;51.622;7.046;2022-08-05T07:58:21;11.50;;;7.50;;
5117;SDS011;2578;51.622;7.046;2022-08-05T08:00:47;11.03;;;7.07;;
5117;SDS011;2578;51.622;7.046;2022-08-05T08:03:14;14.57;;;7.90;;
5117;SDS011;2578;51.622;7.046;2022-08-05T08:05:42;11.27;;;7.40;;
5117;SDS011;2578;51.622;7.046;2022-08-05T08:08:11;11.20;;;7.60;;
5117;SDS011;2578;51.622;7.046;2022-08-05T08:10:37;11.87;;;8.30;;
5117;SDS011;2578;51.622;7.046;2022-08-05T08:13:04;13.50;;;7.53;;
5117;SDS011;2578;51.622;7.046;2022-08-05T08:15:30;11.50;;;7.15;;
5117;SDS011;2578;51.622;7.046;2022-08-05T08:17:56;10.93;;;7.30;;
5117;SDS011;2578;51.622;7.046;2022-08-05T08:20:22;10.73;;;7.00;;
5117;SDS011;2578;51.622;7.046;2022-08-05T08:22:49;10.73;;;7.22;;
5117;SDS011;2578;51.622;7.046;2022-08-05T08:25:18;10.53;;;6.70;;
5117;SDS011;2578;51.622;7.046;2022-08-05T08:27:45;10.70;;;7.00;;
5117;SDS011;2578;51.622;7.046;2022-08-05T08:30:11;11.10;;;7.80;;
5117;SDS011;2578;51.622;7.046;2022-08-05T08:32:37;11.30;;;7.30;;
5117;SDS011;2578;51.622;7.046;2022-08-05T08:35:03;10.93;;;7.70;;
5117;SDS011;2578;51.622;7.046;2022-08-05T08:37:30;10.55;;;7.47;;
5117;SDS011;2578;51.622;7.046;2022-08-05T08:39:55;10.53;;;6.80;;
5117;SDS011;2578;51.622;7.046;2022-08-05T08:42:21;10.50;;;6.90;;
5117;SDS011;2578;51.622;7.046;2022-08-05T08:44:47;11.20;;;7.50;;
5117;SDS011;2578;51.622;7.046;2022-08-05T08:47:14;10.65;;;7.13;;
5117;SDS011;2578;51.622;7.046;2022-08-05T08:49:43;10.50;;;7.30;;
5117;SDS011;2578;51.622;7.046;2022-08-05T08:52:11;10.33;;;6.40;;
5117;SDS011;2578;51.622;7.046;2022-08-05T08:54:41;11.03;;;7.00;;
5117;SDS011;2578;51.622;7.046;2022-08-05T08:57:08;10.57;;;7.17;;
5117;SDS011;2578;51.622;7.046;2022-08-05T08:59:35;10.53;;;6.50;;
5117;SDS011;2578;51.622;7.046;2022-08-05T09:02:03;10.43;;;6.77;;
5117;SDS011;2578;51.622;7.046;2022-08-05T09:04:35;10.33;;;6.50;;
5117;SDS011;2578;51.622;7.046;2022-08-05T09:07:02;10.43;;;6.57;;
5117;SDS011;2578;51.622;7.046;2022-08-05T09:09:30;10.07;;;5.50;;
5117;SDS011;2578;51.622;7.046;2022-08-05T09:11:56;10.45;;;6.30;;
5117;SDS011;2578;51.622;7.046;2022-08-05T09:14:22;11.40;;;7.13;;
5117;SDS011;2578;51.622;7.046;2022-08-05T09:16:48;10.33;;;5.80;;
5117;SDS011;2578;51.622;7.046;2022-08-05T09:19:14;10.52;;;6.30;;
5117;SDS011;2578;51.622;7.046;2022-08-05T09:21:39;10.47;;;6.40;;
5117;SDS011;2578;51.622;7.046;2022-08-05T09:24:06;12.20;;;8.05;;
5117;SDS011;2578;51.622;7.046;2022-08-05T09:26:34;10.47;;;6.20;;
5117;SDS011;2578;51.622;7.046;2022-08-05T09:29:01;10.45;;;6.70;;
5117;SDS011;2578;51.622;7.046;2022-08-05T09:31:30;10.57;;;6.70;;
5117;SDS011;2578;51.622;7.046;2022-08-05T09:34:01;10.63;;;6.80;;
5117;SDS011;2578;51.622;7.046;2022-08-05T09:36:39;10.57;;;7.00;;
5117;SDS011;2578;51.622;7.046;2022-08-05T09:39:10;11.80;;;7.10;;
5117;SDS011;2578;51.622;7.046;2022-08-05T09:44:35;10.47;;;6.40;;
5117;SDS011;2578;51.622;7.046;2022-08-05T09:47:15;10.50;;;6.50;;
5117;SDS011;2578;51.622;7.046;2022-08-05T09:49:49;10.40;;;6.40;;
5117;SDS011;2578;51.622;7.046;2022-08-05T09:52:23;10.60;;;6.47;;
5117;SDS011;2578;51.622;7.046;2022-08-05T09:57:35;12.27;;;7.13;;
5117;SDS011;2578;51.622;7.046;2022-08-05T10:02:48;11.07;;;6.70;;
5117;SDS011;2578;51.622;7.046;2022-08-05T10:05:27;10.50;;;6.50;;
5117;SDS011;2578;51.622;7.046;2022-08-05T10:07:58;10.10;;;5.60;;
5117;SDS011;2578;51.622;7.046;2022-08-05T10:10:53;10.90;;;6.20;;
5117;SDS011;2578;51.622;7.046;2022-08-05T10:13:52;10.27;;;5.80;;
5117;SDS011;2578;51.622;7.046;2022-08-05T10:16:33;11.35;;;6.68;;
5117;SDS011;2578;51.622;7.046;2022-08-05T10:19:03;10.00;;;5.17;;
5117;SDS011;2578;51.622;7.046;2022-08-05T10:21:30;10.20;;;4.30;;
5117;SDS011;2578;51.622;7.046;2022-08-05T10:23:55;10.63;;;5.40;;
5117;SDS011;2578;51.622;7.046;2022-08-05T10:26:22;9.33;;;4.50;;
5117;SDS011;2578;51.622;7.046;2022-08-05T10:28:48;9.17;;;5.00;;
5117;SDS011;2578;51.622;7.046;2022-08-05T10:31:14;9.83;;;5.97;;
5117;SDS011;2578;51.622;7.046;2022-08-05T10:33:41;9.10;;;5.00;;
5117;SDS011;2578;51.622;7.046;2022-08-05T10:36:08;9.10;;;5.30;;
5117;SDS011;2578;51.622;7.046;2022-08-05T10:38:37;11.43;;;7.60;;
5117;SDS011;2578;51.622;7.046;2022-08-05T10:43:58;8.43;;;5.37;;
5117;SDS011;2578;51.622;7.046;2022-08-05T10:46:44;9.80;;;8.23;;
5117;SDS011;2578;51.622;7.046;2022-08-05T10:49:15;11.07;;;8.03;;
5117;SDS011;2578;51.622;7.046;2022-08-05T10:51:44;9.13;;;7.77;;
5117;SDS011;2578;51.622;7.046;2022-08-05T10:54:44;12.13;;;10.90;;
5117;SDS011;2578;51.622;7.046;2022-08-05T10:57:26;12.67;;;10.83;;
5117;SDS011;2578;51.622;7.046;2022-08-05T11:00:05;10.53;;;9.53;;
5117;SDS011;2578;51.622;7.046;2022-08-05T11:02:33;11.13;;;10.03;;
5117;SDS011;2578;51.622;7.046;2022-08-05T11:04:59;12.33;;;11.13;;
5117;SDS011;2578;51.622;7.046;2022-08-05T11:07:33;12.43;;;11.13;;
5117;SDS011;2578;51.622;7.046;2022-08-05T11:10:00;12.00;;;10.90;;
5117;SDS011;2578;51.622;7.046;2022-08-05T11:17:34;12.50;;;11.23;;
5117;SDS011;2578;51.622;7.046;2022-08-05T11:20:07;12.23;;;11.13;;
5117;SDS011;2578;51.622;7.046;2022-08-05T11:22:53;12.63;;;11.43;;
5117;SDS011;2578;51.622;7.046;2022-08-05T11:25:38;13.10;;;11.90;;
5117;SDS011;2578;51.622;7.046;2022-08-05T11:35:59;13.40;;;12.07;;
5117;SDS011;2578;51.622;7.046;2022-08-05T11:41:16;13.10;;;11.90;;
5117;SDS011;2578;51.622;7.046;2022-08-05T11:49:03;13.77;;;12.48;;
5117;SDS011;2578;51.622;7.046;2022-08-05T11:51:30;13.20;;;12.00;;
5117;SDS011;2578;51.622;7.046;2022-08-05T11:53:56;13.47;;;12.27;;
5117;SDS011;2578;51.622;7.046;2022-08-05T11:56:22;13.97;;;12.77;;
5117;SDS011;2578;51.622;7.046;2022-08-05T11:58:48;12.80;;;11.60;;
5117;SDS011;2578;51.622;7.046;2022-08-05T12:01:16;12.90;;;11.70;;
5117;SDS011;2578;51.622;7.046;2022-08-05T12:03:48;13.20;;;12.00;;
5117;SDS011;2578;51.622;7.046;2022-08-05T12:06:17;14.23;;;13.00;;
5117;SDS011;2578;51.622;7.046;2022-08-05T12:08:46;14.97;;;13.67;;
5117;SDS011;2578;51.622;7.046;2022-08-05T12:11:23;16.47;;;15.07;;
5117;SDS011;2578;51.622;7.046;2022-08-05T12:13:55;16.53;;;14.93;;
5117;SDS011;2578;51.622;7.046;2022-08-05T12:16:26;17.07;;;15.57;;
5117;SDS011;2578;51.622;7.046;2022-08-05T12:18:53;16.10;;;14.70;;
5117;SDS011;2578;51.622;7.046;2022-08-05T12:21:21;16.03;;;14.63;;
5117;SDS011;2578;51.622;7.046;2022-08-05T12:24:05;13.80;;;12.50;;
5117;SDS011;2578;51.622;7.046;2022-08-05T12:26:35;12.47;;;11.27;;
5117;SDS011;2578;51.622;7.046;2022-08-05T12:29:07;11.93;;;10.73;;
5117;SDS011;2578;51.622;7.046;2022-08-05T12:31:39;10.67;;;9.57;;
5117;SDS011;2578;51.622;7.046;2022-08-05T12:34:09;11.57;;;10.47;;
5117;SDS011;2578;51.622;7.046;2022-08-05T12:36:58;9.67;;;8.67;;
5117;SDS011;2578;51.622;7.046;2022-08-05T12:39:51;11.40;;;10.30;;
5117;SDS011;2578;51.622;7.046;2022-08-05T12:42:18;12.37;;;11.20;;
5117;SDS011;2578;51.622;7.046;2022-08-05T12:44:45;12.90;;;11.60;;
5117;SDS011;2578;51.622;7.046;2022-08-05T12:47:11;12.57;;;11.37;;
5117;SDS011;2578;51.622;7.046;2022-08-05T12:49:42;13.55;;;12.35;;
5117;SDS011;2578;51.622;7.046;2022-08-05T12:52:16;15.80;;;14.40;;
5117;SDS011;2578;51.622;7.046;2022-08-05T12:54:46;15.93;;;14.43;;
5117;SDS011;2578;51.622;7.046;2022-08-05T12:57:14;16.60;;;15.10;;
5117;SDS011;2578;51.622;7.046;2022-08-05T12:59:48;20.10;;;18.30;;
5117;SDS011;2578;51.622;7.046;2022-08-05T13:02:19;22.83;;;19.13;;
5117;SDS011;2578;51.622;7.046;2022-08-05T13:04:47;21.50;;;19.50;;
5117;SDS011;2578;51.622;7.046;2022-08-05T13:07:17;20.70;;;18.80;;
5117;SDS011;2578;51.622;7.046;2022-08-05T13:10:02;21.80;;;19.80;;
5117;SDS011;2578;51.622;7.046;2022-08-05T13:12:43;20.20;;;18.40;;
5117;SDS011;2578;51.622;7.046;2022-08-05T13:15:10;19.80;;;18.00;;
5117;SDS011;2578;51.622;7.046;2022-08-05T13:17:38;18.80;;;17.10;;
5117;SDS011;2578;51.622;7.046;2022-08-05T13:20:04;18.97;;;17.27;;
5117;SDS011;2578;51.622;7.046;2022-08-05T13:22:31;18.80;;;17.10;;
5117;SDS011;2578;51.622;7.046;2022-08-05T13:25:03;17.20;;;15.70;;
5117;SDS011;2578;51.622;7.046;2022-08-05T13:29:58;16.23;;;14.75;;
5117;SDS011;2578;51.622;7.046;2022-08-05T13:32:24;15.70;;;14.30;;
5117;SDS011;2578;51.622;7.046;2022-08-05T13:34:50;17.30;;;15.70;;
5117;SDS011;2578;51.622;7.046;2022-08-05T13:37:17;16.57;;;15.07;;
5117;SDS011;2578;51.622;7.046;2022-08-05T13:39:43;17.90;;;16.30;;
5117;SDS011;2578;51.622;7.046;2022-08-05T13:42:09;17.13;;;15.53;;
5117;SDS011;2578;51.622;7.046;2022-08-05T13:44:35;18.17;;;16.52;;
5117;SDS011;2578;51.622;7.046;2022-08-05T13:47:24;17.60;;;16.00;;
5117;SDS011;2578;51.622;7.046;2022-08-05T13:49:51;19.42;;;17.70;;
5117;SDS011;2578;51.622;7.046;2022-08-05T13:52:29;19.23;;;17.43;;
5117;SDS011;2578;51.622;7.046;2022-08-05T13:54:58;19.90;;;18.10;;
5117;SDS011;2578;51.622;7.046;2022-08-05T13:57:27;20.75;;;18.85;;
5117;SDS011;2578;51.622;7.046;2022-08-05T13:59:58;21.07;;;19.17;;
5117;SDS011;2578;51.622;7.046;2022-08-05T14:02:24;21.13;;;19.23;;
5117;SDS011;2578;51.622;7.046;2022-08-05T14:04:55;22.47;;;20.47;;
5117;SDS011;2578;51.622;7.046;2022-08-05T14:07:41;22.50;;;20.50;;
5117;SDS011;2578;51.622;7.046;2022-08-05T14:10:18;22.27;;;20.20;;
5117;SDS011;2578;51.622;7.046;2022-08-05T14:12:49;23.30;;;21.20;;
5117;SDS011;2578;51.622;7.046;2022-08-05T14:15:15;24.63;;;22.33;;
5117;SDS011;2578;51.622;7.046;2022-08-05T14:17:42;23.83;;;21.60;;
5117;SDS011;2578;51.622;7.046;2022-08-05T14:20:08;25.10;;;22.70;;
5117;SDS011;2578;51.622;7.046;2022-08-05T14:22:34;24.17;;;21.87;;
5117;SDS011;2578;51.622;7.046;2022-08-05T14:25:00;24.63;;;22.33;;
5117;SDS011;2578;51.622;7.046;2022-08-05T14:27:27;25.40;;;22.90;;
5117;SDS011;2578;51.622;7.046;2022-08-05T14:29:53;25.70;;;23.30;;
5117;SDS011;2578;51.622;7.046;2022-08-05T14:32:18;25.43;;;23.03;;
5117;SDS011;2578;51.622;7.046;2022-08-05T14:34:44;26.70;;;24.20;;
5117;SDS011;2578;51.622;7.046;2022-08-05T14:37:10;26.47;;;23.97;;
5117;SDS011;2578;51.622;7.046;2022-08-05T14:39:36;25.73;;;23.33;;
5117;SDS011;2578;51.622;7.046;2022-08-05T14:42:01;26.00;;;23.60;;
5117;SDS011;2578;51.622;7.046;2022-08-05T14:44:27;26.20;;;23.80;;
5117;SDS011;2578;51.622;7.046;2022-08-05T14:46:53;26.13;;;23.70;;
5117;SDS011;2578;51.622;7.046;2022-08-05T14:49:19;27.00;;;24.50;;
5117;SDS011;2578;51.622;7.046;2022-08-05T14:51:45;26.40;;;24.00;;
5117;SDS011;2578;51.622;7.046;2022-08-05T14:54:10;26.77;;;24.30;;
5117;SDS011;2578;51.622;7.046;2022-08-05T14:56:36;28.40;;;25.60;;
5117;SDS011;2578;51.622;7.046;2022-08-05T14:59:02;27.07;;;24.57;;
5117;SDS011;2578;51.622;7.046;2022-08-05T15:01:28;26.77;;;24.27;;
5117;SDS011;2578;51.622;7.046;2022-08-05T15:03:53;26.27;;;23.87;;
5117;SDS011;2578;51.622;7.046;2022-08-05T15:06:19;25.63;;;23.23;;
5117;SDS011;2578;51.622;7.046;2022-08-05T15:08:45;25.57;;;23.17;;
5117;SDS011;2578;51.622;7.046;2022-08-05T15:11:11;25.00;;;22.60;;
5117;SDS011;2578;51.622;7.046;2022-08-05T15:13:36;25.70;;;23.30;;
5117;SDS011;2578;51.622;7.046;2022-08-05T15:16:02;26.15;;;23.75;;
5117;SDS011;2578;51.622;7.046;2022-08-05T15:18:29;27.90;;;25.30;;
5117;SDS011;2578;51.622;7.046;2022-08-05T15:20:55;28.00;;;25.50;;
5117;SDS011;2578;51.622;7.046;2022-08-05T15:23:20;28.30;;;25.80;;
5117;SDS011;2578;51.622;7.046;2022-08-05T15:25:54;28.33;;;25.77;;
5117;SDS011;2578;51.622;7.046;2022-08-05T15:28:28;27.70;;;25.20;;
5117;SDS011;2578;51.622;7.046;2022-08-05T15:31:03;27.80;;;25.30;;
5117;SDS011;2578;51.622;7.046;2022-08-05T15:33:32;27.87;;;25.37;;
5117;SDS011;2578;51.622;7.046;2022-08-05T15:36:03;26.73;;;24.33;;
5117;SDS011;2578;51.622;7.046;2022-08-05T15:38:50;27.05;;;24.65;;
5117;SDS011;2578;51.622;7.046;2022-08-05T15:41:20;25.60;;;23.30;;
5117;SDS011;2578;51.622;7.046;2022-08-05T15:43:47;25.67;;;23.30;;
5117;SDS011;2578;51.622;7.046;2022-08-05T15:46:12;26.17;;;23.87;;
5117;SDS011;2578;51.622;7.046;2022-08-05T15:48:38;25.70;;;23.40;;
5117;SDS011;2578;51.622;7.046;2022-08-05T15:51:04;25.77;;;23.40;;
5117;SDS011;2578;51.622;7.046;2022-08-05T15:53:29;25.40;;;23.10;;
5117;SDS011;2578;51.622;7.046;2022-08-05T15:55:55;30.73;;;22.87;;
5117;SDS011;2578;51.622;7.046;2022-08-05T15:58:21;24.50;;;22.30;;